sensor_id;sensor_type;location;lat;lon;timestamp;pressure;altitude;pressure_sealevel;temperature;humidity
56894;BME280;43392;50.078;13.704;2023-04-24T00:01:59;95914.47;;;11.72;74.98
56894;BME280;43392;50.078;13.704;2023-04-24T00:04:26;95911.38;;;11.65;75.19
56894;BME280;43392;50.078;13.704;2023-04-24T00:06:53;95909.13;;;11.58;75.57
56894;BME280;43392;50.078;13.704;2023-04-24T00:09:22;95917.28;;;11.53;76.08
56894;BME280;43392;50.078;13.704;2023-04-24T00:11:50;95918.22;;;11.49;75.83
56894;BME280;43392;50.078;13.704;2023-04-24T00:14:17;95918.53;;;11.47;76.38
56894;BME280;43392;50.078;13.704;2023-04-24T00:16:44;95921.03;;;11.44;76.61
56894;BME280;43392;50.078;13.704;2023-04-24T00:19:10;95921.47;;;11.37;76.90
56894;BME280;43392;50.078;13.704;2023-04-24T00:21:37;95925.06;;;11.32;77.38
56894;BME280;43392;50.078;13.704;2023-04-24T00:24:04;95925.97;;;11.28;78.02
56894;BME280;43392;50.078;13.704;2023-04-24T00:26:31;95914.25;;;11.24;78.57
56894;BME280;43392;50.078;13.704;2023-04-24T00:28:59;95909.50;;;11.21;79.19
56894;BME280;43392;50.078;13.704;2023-04-24T00:31:25;95908.50;;;11.17;79.65
56894;BME280;43392;50.078;13.704;2023-04-24T00:33:52;95911.31;;;11.12;80.36
56894;BME280;43392;50.078;13.704;2023-04-24T00:36:19;95913.81;;;11.08;81.13
56894;BME280;43392;50.078;13.704;2023-04-24T00:38:46;95910.94;;;11.05;81.90
56894;BME280;43392;50.078;13.704;2023-04-24T00:41:12;95912.06;;;11.04;82.45
56894;BME280;43392;50.078;13.704;2023-04-24T00:43:39;95917.53;;;10.99;83.21
56894;BME280;43392;50.078;13.704;2023-04-24T00:46:07;95910.88;;;10.96;83.66
56894;BME280;43392;50.078;13.704;2023-04-24T00:48:34;95908.31;;;10.91;83.95
56894;BME280;43392;50.078;13.704;2023-04-24T00:51:01;95903.44;;;10.93;84.55
56894;BME280;43392;50.078;13.704;2023-04-24T00:53:28;95909.13;;;10.92;84.84
56894;BME280;43392;50.078;13.704;2023-04-24T00:55:55;95908.09;;;10.88;85.23
56894;BME280;43392;50.078;13.704;2023-04-24T00:58:22;95904.66;;;10.87;86.13
56894;BME280;43392;50.078;13.704;2023-04-24T01:00:50;95908.22;;;10.83;86.52
56894;BME280;43392;50.078;13.704;2023-04-24T01:03:20;95888.78;;;10.77;87.24
56894;BME280;43392;50.078;13.704;2023-04-24T01:05:49;95909.44;;;10.77;87.68
56894;BME280;43392;50.078;13.704;2023-04-24T01:08:16;95895.22;;;10.76;87.85
56894;BME280;43392;50.078;13.704;2023-04-24T01:10:43;95902.47;;;10.76;88.70
56894;BME280;43392;50.078;13.704;2023-04-24T01:13:11;95888.59;;;10.74;88.57
56894;BME280;43392;50.078;13.704;2023-04-24T01:15:37;95892.38;;;10.73;88.94
56894;BME280;43392;50.078;13.704;2023-04-24T01:18:04;95883.34;;;10.68;89.60
56894;BME280;43392;50.078;13.704;2023-04-24T01:20:33;95892.97;;;10.70;89.78
56894;BME280;43392;50.078;13.704;2023-04-24T01:23:03;95888.22;;;10.66;90.52
56894;BME280;43392;50.078;13.704;2023-04-24T01:25:30;95893.56;;;10.66;90.79
56894;BME280;43392;50.078;13.704;2023-04-24T01:27:57;95887.41;;;10.66;90.65
56894;BME280;43392;50.078;13.704;2023-04-24T01:30:23;95883.97;;;10.65;90.71
56894;BME280;43392;50.078;13.704;2023-04-24T01:32:50;95893.88;;;10.65;90.91
56894;BME280;43392;50.078;13.704;2023-04-24T01:35:17;95878.41;;;10.62;91.60
56894;BME280;43392;50.078;13.704;2023-04-24T01:37:45;95892.00;;;10.65;91.18
56894;BME280;43392;50.078;13.704;2023-04-24T01:40:13;95891.19;;;10.65;91.48
56894;BME280;43392;50.078;13.704;2023-04-24T01:42:41;95887.25;;;10.62;91.74
56894;BME280;43392;50.078;13.704;2023-04-24T01:45:10;95881.38;;;10.60;91.98
56894;BME280;43392;50.078;13.704;2023-04-24T01:47:37;95888.31;;;10.61;92.09
56894;BME280;43392;50.078;13.704;2023-04-24T01:50:05;95887.25;;;10.62;92.26
56894;BME280;43392;50.078;13.704;2023-04-24T01:52:32;95886.13;;;10.63;92.38
56894;BME280;43392;50.078;13.704;2023-04-24T01:55:00;95881.06;;;10.62;92.47
56894;BME280;43392;50.078;13.704;2023-04-24T01:57:29;95886.13;;;10.63;92.76
56894;BME280;43392;50.078;13.704;2023-04-24T01:59:56;95884.25;;;10.64;93.05
56894;BME280;43392;50.078;13.704;2023-04-24T02:02:23;95877.00;;;10.64;93.47
56894;BME280;43392;50.078;13.704;2023-04-24T02:04:52;95880.47;;;10.65;93.86
56894;BME280;43392;50.078;13.704;2023-04-24T02:07:19;95879.19;;;10.62;94.23
56894;BME280;43392;50.078;13.704;2023-04-24T02:09:45;95869.88;;;10.60;94.57
56894;BME280;43392;50.078;13.704;2023-04-24T02:12:12;95865.91;;;10.57;95.02
56894;BME280;43392;50.078;13.704;2023-04-24T02:14:40;95867.78;;;10.57;95.00
56894;BME280;43392;50.078;13.704;2023-04-24T02:17:07;95863.22;;;10.57;94.92
56894;BME280;43392;50.078;13.704;2023-04-24T02:19:34;95860.06;;;10.55;94.99
56894;BME280;43392;50.078;13.704;2023-04-24T02:22:00;95861.34;;;10.58;95.02
56894;BME280;43392;50.078;13.704;2023-04-24T02:24:27;95865.91;;;10.57;95.45
56894;BME280;43392;50.078;13.704;2023-04-24T02:26:53;95847.72;;;10.54;95.21
56894;BME280;43392;50.078;13.704;2023-04-24T02:29:21;95857.84;;;10.57;95.35
56894;BME280;43392;50.078;13.704;2023-04-24T02:31:49;95853.56;;;10.56;95.41
56894;BME280;43392;50.078;13.704;2023-04-24T02:34:15;95856.75;;;10.58;95.20
56894;BME280;43392;50.078;13.704;2023-04-24T02:36:42;95857.53;;;10.59;95.10
56894;BME280;43392;50.078;13.704;2023-04-24T02:39:09;95850.31;;;10.59;95.06
56894;BME280;43392;50.078;13.704;2023-04-24T02:41:35;95851.91;;;10.60;95.19
56894;BME280;43392;50.078;13.704;2023-04-24T02:44:02;95851.91;;;10.60;95.20
56894;BME280;43392;50.078;13.704;2023-04-24T02:46:28;95850.78;;;10.61;94.80
56894;BME280;43392;50.078;13.704;2023-04-24T02:48:56;95855.88;;;10.63;94.70
56894;BME280;43392;50.078;13.704;2023-04-24T02:51:23;95849.72;;;10.62;94.59
56894;BME280;43392;50.078;13.704;2023-04-24T02:53:50;95845.91;;;10.63;94.50
56894;BME280;43392;50.078;13.704;2023-04-24T02:56:16;95844.03;;;10.64;94.33
56894;BME280;43392;50.078;13.704;2023-04-24T02:58:43;95847.50;;;10.64;94.14
56894;BME280;43392;50.078;13.704;2023-04-24T03:01:10;95847.50;;;10.64;94.15
56894;BME280;43392;50.078;13.704;2023-04-24T03:03:37;95834.09;;;10.64;94.08
56894;BME280;43392;50.078;13.704;2023-04-24T03:06:05;95833.63;;;10.62;93.99
56894;BME280;43392;50.078;13.704;2023-04-24T03:08:33;95829.53;;;10.65;93.65
56894;BME280;43392;50.078;13.704;2023-04-24T03:10:59;95832.50;;;10.63;93.71
56894;BME280;43392;50.078;13.704;2023-04-24T03:13:26;95830.63;;;10.64;93.52
56894;BME280;43392;50.078;13.704;2023-04-24T03:15:53;95833.63;;;10.62;93.29
56894;BME280;43392;50.078;13.704;2023-04-24T03:18:20;95822.09;;;10.62;93.35
56894;BME280;43392;50.078;13.704;2023-04-24T03:20:46;95825.25;;;10.64;93.12
56894;BME280;43392;50.078;13.704;2023-04-24T03:23:14;95828.75;;;10.64;92.84
56894;BME280;43392;50.078;13.704;2023-04-24T03:25:41;95824.97;;;10.65;92.90
56894;BME280;43392;50.078;13.704;2023-04-24T03:28:08;95825.56;;;10.62;92.71
56894;BME280;43392;50.078;13.704;2023-04-24T03:30:34;95817.75;;;10.52;92.60
56894;BME280;43392;50.078;13.704;2023-04-24T03:33:01;95821.13;;;10.58;92.79
56894;BME280;43392;50.078;13.704;2023-04-24T03:35:27;95832.44;;;10.55;93.17
56894;BME280;43392;50.078;13.704;2023-04-24T03:37:54;95822.03;;;10.53;93.10
56894;BME280;43392;50.078;13.704;2023-04-24T03:40:22;95817.75;;;10.52;93.32
56894;BME280;43392;50.078;13.704;2023-04-24T03:42:49;95819.34;;;10.53;93.16
56894;BME280;43392;50.078;13.704;2023-04-24T03:45:16;95813.47;;;10.51;93.07
56894;BME280;43392;50.078;13.704;2023-04-24T03:47:42;95821.72;;;10.55;92.62
56894;BME280;43392;50.078;13.704;2023-04-24T03:50:09;95817.16;;;10.55;92.67
56894;BME280;43392;50.078;13.704;2023-04-24T03:52:36;95815.88;;;10.53;92.34
56894;BME280;43392;50.078;13.704;2023-04-24T03:55:03;95813.19;;;10.53;91.99
56894;BME280;43392;50.078;13.704;2023-04-24T03:57:31;95824.03;;;10.48;92.10
56894;BME280;43392;50.078;13.704;2023-04-24T03:59:57;95828.22;;;10.40;92.52
56894;BME280;43392;50.078;13.704;2023-04-24T04:02:24;95824.56;;;10.36;92.78
56894;BME280;43392;50.078;13.704;2023-04-24T04:04:50;95823.44;;;10.37;92.88
56894;BME280;43392;50.078;13.704;2023-04-24T04:07:17;95819.38;;;10.40;92.53
56894;BME280;43392;50.078;13.704;2023-04-24T04:09:44;95825.75;;;10.44;92.40
56894;BME280;43392;50.078;13.704;2023-04-24T04:12:11;95822.16;;;10.48;92.45
56894;BME280;43392;50.078;13.704;2023-04-24T04:14:39;95817.44;;;10.90;93.78
56894;BME280;43392;50.078;13.704;2023-04-24T04:17:05;95825.28;;;11.30;89.80
56894;BME280;43392;50.078;13.704;2023-04-24T04:19:32;95829.38;;;11.28;88.42
56894;BME280;43392;50.078;13.704;2023-04-24T04:21:59;95828.56;;;11.05;88.81
56894;BME280;43392;50.078;13.704;2023-04-24T04:24:25;95824.38;;;10.91;89.39
56894;BME280;43392;50.078;13.704;2023-04-24T04:26:52;95825.72;;;10.80;89.71
56894;BME280;43392;50.078;13.704;2023-04-24T04:29:21;95837.34;;;10.75;90.14
56894;BME280;43392;50.078;13.704;2023-04-24T04:31:50;95834.97;;;10.74;90.49
56894;BME280;43392;50.078;13.704;2023-04-24T04:34:17;95835.97;;;10.78;90.44
56894;BME280;43392;50.078;13.704;2023-04-24T04:36:44;95838.13;;;10.76;90.29
56894;BME280;43392;50.078;13.704;2023-04-24T04:39:11;95833.31;;;10.64;90.44
56894;BME280;43392;50.078;13.704;2023-04-24T04:41:39;95835.59;;;10.57;90.86
56894;BME280;43392;50.078;13.704;2023-04-24T04:44:06;95832.75;;;10.53;90.87
56894;BME280;43392;50.078;13.704;2023-04-24T04:46:34;95831.16;;;10.52;91.20
56894;BME280;43392;50.078;13.704;2023-04-24T04:49:03;95839.00;;;10.49;91.25
56894;BME280;43392;50.078;13.704;2023-04-24T04:51:30;95830.84;;;10.54;91.00
56894;BME280;43392;50.078;13.704;2023-04-24T04:53:57;95842.75;;;10.61;90.97
56894;BME280;43392;50.078;13.704;2023-04-24T04:56:23;95829.81;;;10.63;90.36
56894;BME280;43392;50.078;13.704;2023-04-24T04:58:50;95839.56;;;10.59;90.32
56894;BME280;43392;50.078;13.704;2023-04-24T05:01:17;95836.09;;;10.59;90.55
56894;BME280;43392;50.078;13.704;2023-04-24T05:03:43;95840.75;;;10.67;90.49
56894;BME280;43392;50.078;13.704;2023-04-24T05:06:11;95847.09;;;10.71;89.79
56894;BME280;43392;50.078;13.704;2023-04-24T05:08:38;95839.66;;;10.68;89.36
56894;BME280;43392;50.078;13.704;2023-04-24T05:11:05;95834.41;;;10.63;89.14
56894;BME280;43392;50.078;13.704;2023-04-24T05:13:32;95848.69;;;10.58;89.51
56894;BME280;43392;50.078;13.704;2023-04-24T05:15:59;95828.22;;;10.40;89.82
56894;BME280;43392;50.078;13.704;2023-04-24T05:18:25;95852.72;;;10.47;90.01
56894;BME280;43392;50.078;13.704;2023-04-24T05:20:52;95849.53;;;10.45;90.15
56894;BME280;43392;50.078;13.704;2023-04-24T05:23:20;95861.16;;;10.41;90.58
56894;BME280;43392;50.078;13.704;2023-04-24T05:25:46;95856.28;;;10.43;90.94
56894;BME280;43392;50.078;13.704;2023-04-24T05:28:13;95863.44;;;10.47;89.89
56894;BME280;43392;50.078;13.704;2023-04-24T05:30:40;95859.84;;;10.52;90.03
56894;BME280;43392;50.078;13.704;2023-04-24T05:33:07;95861.34;;;10.58;90.04
56894;BME280;43392;50.078;13.704;2023-04-24T05:35:35;95867.97;;;10.60;90.13
56894;BME280;43392;50.078;13.704;2023-04-24T05:38:01;95864.69;;;10.63;90.21
56894;BME280;43392;50.078;13.704;2023-04-24T05:40:29;95871.53;;;10.70;90.13
56894;BME280;43392;50.078;13.704;2023-04-24T05:42:56;95880.06;;;10.72;90.01
56894;BME280;43392;50.078;13.704;2023-04-24T05:45:22;95884.03;;;10.74;90.07
56894;BME280;43392;50.078;13.704;2023-04-24T05:47:49;95887.03;;;10.73;89.92
56894;BME280;43392;50.078;13.704;2023-04-24T05:50:17;95895.84;;;10.73;90.18
56894;BME280;43392;50.078;13.704;2023-04-24T05:52:44;95895.06;;;10.73;90.10
56894;BME280;43392;50.078;13.704;2023-04-24T05:55:10;95891.28;;;10.74;90.22
56894;BME280;43392;50.078;13.704;2023-04-24T05:57:38;95901.72;;;10.75;90.27
56894;BME280;43392;50.078;13.704;2023-04-24T06:00:06;95907.56;;;10.77;89.85
56894;BME280;43392;50.078;13.704;2023-04-24T06:02:33;95914.22;;;10.80;89.67
56894;BME280;43392;50.078;13.704;2023-04-24T06:05:00;95919.25;;;10.81;90.05
56894;BME280;43392;50.078;13.704;2023-04-24T06:07:26;95914.69;;;10.82;90.05
56894;BME280;43392;50.078;13.704;2023-04-24T06:09:53;95913.72;;;10.78;90.31
56894;BME280;43392;50.078;13.704;2023-04-24T06:12:20;95922.25;;;10.80;90.83
56894;BME280;43392;50.078;13.704;2023-04-24T06:14:48;95910.53;;;10.76;91.30
56894;BME280;43392;50.078;13.704;2023-04-24T06:17:15;95910.84;;;10.74;91.38
56894;BME280;43392;50.078;13.704;2023-04-24T06:19:42;95923.66;;;10.77;92.04
56894;BME280;43392;50.078;13.704;2023-04-24T06:22:08;95920.16;;;10.77;92.24
56894;BME280;43392;50.078;13.704;2023-04-24T06:24:35;95921.25;;;10.76;92.46
56894;BME280;43392;50.078;13.704;2023-04-24T06:27:02;95921.44;;;10.79;92.62
56894;BME280;43392;50.078;13.704;2023-04-24T06:29:29;95924.94;;;10.80;92.55
56894;BME280;43392;50.078;13.704;2023-04-24T06:31:57;95915.19;;;10.84;92.69
56894;BME280;43392;50.078;13.704;2023-04-24T06:34:23;95918.34;;;10.86;92.60
56894;BME280;43392;50.078;13.704;2023-04-24T06:36:50;95921.22;;;10.89;92.63
56894;BME280;43392;50.078;13.704;2023-04-24T06:39:17;95915.28;;;10.92;92.59
56894;BME280;43392;50.078;13.704;2023-04-24T06:41:43;95913.56;;;10.96;92.60
56894;BME280;43392;50.078;13.704;2023-04-24T06:44:10;95919.09;;;11.00;92.85
56894;BME280;43392;50.078;13.704;2023-04-24T06:46:36;95920.91;;;11.04;92.67
56894;BME280;43392;50.078;13.704;2023-04-24T06:49:04;95922.66;;;11.09;92.72
56894;BME280;43392;50.078;13.704;2023-04-24T06:51:31;95925.03;;;11.10;92.82
56894;BME280;43392;50.078;13.704;2023-04-24T06:53:59;95914.00;;;11.12;92.82
56894;BME280;43392;50.078;13.704;2023-04-24T06:56:26;95912.91;;;11.13;92.93
56894;BME280;43392;50.078;13.704;2023-04-24T06:58:54;95913.72;;;11.13;92.95
56894;BME280;43392;50.078;13.704;2023-04-24T07:01:20;95915.59;;;11.13;93.22
56894;BME280;43392;50.078;13.704;2023-04-24T07:03:47;95914.50;;;11.14;93.23
56894;BME280;43392;50.078;13.704;2023-04-24T07:06:15;95920.34;;;11.16;93.14
56894;BME280;43392;50.078;13.704;2023-04-24T07:08:43;95916.28;;;11.18;92.92
56894;BME280;43392;50.078;13.704;2023-04-24T07:11:10;95925.50;;;11.26;92.76
56894;BME280;43392;50.078;13.704;2023-04-24T07:13:36;95931.50;;;11.31;92.47
56894;BME280;43392;50.078;13.704;2023-04-24T07:16:06;95933.28;;;11.36;92.39
56894;BME280;43392;50.078;13.704;2023-04-24T07:18:33;95931.59;;;11.40;92.75
56894;BME280;43392;50.078;13.704;2023-04-24T07:21:00;95919.94;;;11.45;92.21
56894;BME280;43392;50.078;13.704;2023-04-24T07:23:28;95925.19;;;11.50;91.93
56894;BME280;43392;50.078;13.704;2023-04-24T07:25:55;95935.47;;;11.56;91.64
56894;BME280;43392;50.078;13.704;2023-04-24T07:28:22;95937.44;;;11.64;91.36
56894;BME280;43392;50.078;13.704;2023-04-24T07:30:49;95937.69;;;11.76;91.30
56894;BME280;43392;50.078;13.704;2023-04-24T07:33:19;95930.47;;;11.85;90.67
56894;BME280;43392;50.078;13.704;2023-04-24T07:35:45;95933.22;;;11.94;90.68
56894;BME280;43392;50.078;13.704;2023-04-24T07:38:12;95935.75;;;11.99;90.33
56894;BME280;43392;50.078;13.704;2023-04-24T07:40:40;95936.25;;;12.01;89.90
56894;BME280;43392;50.078;13.704;2023-04-24T07:43:07;95932.66;;;12.06;90.08
56894;BME280;43392;50.078;13.704;2023-04-24T07:45:33;95927.75;;;12.08;90.44
56894;BME280;43392;50.078;13.704;2023-04-24T07:48:02;95939.91;;;12.05;90.17
56894;BME280;43392;50.078;13.704;2023-04-24T07:50:29;95939.59;;;12.07;89.79
56894;BME280;43392;50.078;13.704;2023-04-24T07:52:55;95943.88;;;12.08;89.48
56894;BME280;43392;50.078;13.704;2023-04-24T07:55:22;95949.25;;;12.08;89.88
56894;BME280;43392;50.078;13.704;2023-04-24T07:57:50;95950.66;;;12.05;90.06
56894;BME280;43392;50.078;13.704;2023-04-24T08:00:18;95941.00;;;12.04;90.49
56894;BME280;43392;50.078;13.704;2023-04-24T08:02:45;95949.38;;;12.03;90.15
56894;BME280;43392;50.078;13.704;2023-04-24T08:05:11;95948.91;;;12.01;90.37
56894;BME280;43392;50.078;13.704;2023-04-24T08:07:38;95953.16;;;12.02;90.63
56894;BME280;43392;50.078;13.704;2023-04-24T08:10:06;95949.97;;;11.99;90.98
56894;BME280;43392;50.078;13.704;2023-04-24T08:12:32;95957.75;;;12.01;90.62
56894;BME280;43392;50.078;13.704;2023-04-24T08:15:00;95961.06;;;11.98;90.40
56894;BME280;43392;50.078;13.704;2023-04-24T08:17:27;95962.47;;;11.95;90.02
56894;BME280;43392;50.078;13.704;2023-04-24T08:19:54;95965.47;;;11.94;90.36
56894;BME280;43392;50.078;13.704;2023-04-24T08:22:26;95966.22;;;11.94;90.44
56894;BME280;43392;50.078;13.704;2023-04-24T08:24:53;95970.53;;;11.95;90.81
56894;BME280;43392;50.078;13.704;2023-04-24T08:27:20;95961.66;;;11.95;90.98
56894;BME280;43392;50.078;13.704;2023-04-24T08:29:46;95963.41;;;11.99;90.73
56894;BME280;43392;50.078;13.704;2023-04-24T08:32:14;95961.72;;;12.04;90.63
56894;BME280;43392;50.078;13.704;2023-04-24T08:34:41;95967.31;;;12.16;90.50
56894;BME280;43392;50.078;13.704;2023-04-24T08:37:07;95955.97;;;12.27;90.52
56894;BME280;43392;50.078;13.704;2023-04-24T08:39:34;95960.09;;;12.33;89.88
56894;BME280;43392;50.078;13.704;2023-04-24T08:42:01;95962.97;;;12.37;89.58
56894;BME280;43392;50.078;13.704;2023-04-24T08:44:33;95970.44;;;12.40;89.16
56894;BME280;43392;50.078;13.704;2023-04-24T08:47:00;95968.38;;;12.45;88.59
56894;BME280;43392;50.078;13.704;2023-04-24T08:49:29;95961.56;;;12.48;88.43
56894;BME280;43392;50.078;13.704;2023-04-24T08:51:56;95960.81;;;12.56;87.90
56894;BME280;43392;50.078;13.704;2023-04-24T08:54:25;95966.88;;;12.70;87.65
56894;BME280;43392;50.078;13.704;2023-04-24T08:56:53;95972.59;;;12.77;86.63
56894;BME280;43392;50.078;13.704;2023-04-24T08:59:21;95972.63;;;12.86;86.31
56894;BME280;43392;50.078;13.704;2023-04-24T09:01:49;95963.31;;;13.00;85.94
56894;BME280;43392;50.078;13.704;2023-04-24T09:04:17;95962.06;;;13.06;85.85
56894;BME280;43392;50.078;13.704;2023-04-24T09:06:48;95958.28;;;13.07;85.44
56894;BME280;43392;50.078;13.704;2023-04-24T09:09:16;95956.56;;;13.20;85.46
56894;BME280;43392;50.078;13.704;2023-04-24T09:11:43;95957.63;;;13.27;85.06
56894;BME280;43392;50.078;13.704;2023-04-24T09:14:10;95965.09;;;13.30;83.99
56894;BME280;43392;50.078;13.704;2023-04-24T09:16:37;95959.72;;;13.30;83.75
56894;BME280;43392;50.078;13.704;2023-04-24T09:19:03;95963.19;;;13.31;83.97
56894;BME280;43392;50.078;13.704;2023-04-24T09:21:31;95958.16;;;13.29;83.65
56894;BME280;43392;50.078;13.704;2023-04-24T09:24:01;95958.28;;;13.33;83.65
56894;BME280;43392;50.078;13.704;2023-04-24T09:26:29;95962.72;;;13.38;82.36
56894;BME280;43392;50.078;13.704;2023-04-24T09:28:58;95959.88;;;13.43;81.79
56894;BME280;43392;50.078;13.704;2023-04-24T09:31:27;95963.66;;;13.50;81.55
56894;BME280;43392;50.078;13.704;2023-04-24T09:33:57;95954.16;;;13.61;81.35
56894;BME280;43392;50.078;13.704;2023-04-24T09:36:28;95950.03;;;13.72;81.29
56894;BME280;43392;50.078;13.704;2023-04-24T09:38:58;95945.44;;;13.73;80.16
56894;BME280;43392;50.078;13.704;2023-04-24T09:41:27;95942.28;;;13.71;80.74
56894;BME280;43392;50.078;13.704;2023-04-24T09:43:54;95942.56;;;13.78;80.61
56894;BME280;43392;50.078;13.704;2023-04-24T09:46:28;95937.50;;;13.85;80.54
56894;BME280;43392;50.078;13.704;2023-04-24T09:48:55;95936.94;;;14.00;79.74
56894;BME280;43392;50.078;13.704;2023-04-24T09:51:33;95935.63;;;14.15;79.15
56894;BME280;43392;50.078;13.704;2023-04-24T09:54:00;95929.78;;;14.21;79.03
56894;BME280;43392;50.078;13.704;2023-04-24T09:56:28;95928.97;;;14.21;78.75
56894;BME280;43392;50.078;13.704;2023-04-24T09:59:04;95926.09;;;14.26;78.48
56894;BME280;43392;50.078;13.704;2023-04-24T10:01:31;95927.66;;;14.27;77.80
56894;BME280;43392;50.078;13.704;2023-04-24T10:03:57;95916.63;;;14.11;77.54
56894;BME280;43392;50.078;13.704;2023-04-24T10:06:31;95923.19;;;14.02;78.30
56894;BME280;43392;50.078;13.704;2023-04-24T10:08:58;95927.00;;;13.92;78.45
56894;BME280;43392;50.078;13.704;2023-04-24T10:11:27;95927.34;;;13.82;78.95
56894;BME280;43392;50.078;13.704;2023-04-24T10:13:54;95923.72;;;13.69;79.18
56894;BME280;43392;50.078;13.704;2023-04-24T10:16:23;95918.34;;;13.61;78.87
56894;BME280;43392;50.078;13.704;2023-04-24T10:18:49;95922.63;;;13.62;78.84
56894;BME280;43392;50.078;13.704;2023-04-24T10:21:16;95918.03;;;13.71;78.83
56894;BME280;43392;50.078;13.704;2023-04-24T10:23:43;95925.59;;;13.86;78.82
56894;BME280;43392;50.078;13.704;2023-04-24T10:26:12;95917.94;;;13.96;77.94
56894;BME280;43392;50.078;13.704;2023-04-24T10:28:43;95918.75;;;13.97;78.85
56894;BME280;43392;50.078;13.704;2023-04-24T10:31:11;95926.38;;;13.86;77.83
56894;BME280;43392;50.078;13.704;2023-04-24T10:33:40;95924.81;;;13.77;77.88
56894;BME280;43392;50.078;13.704;2023-04-24T10:36:08;95927.53;;;13.68;78.34
56894;BME280;43392;50.078;13.704;2023-04-24T10:38:36;95916.13;;;13.54;78.07
56894;BME280;43392;50.078;13.704;2023-04-24T10:41:09;95927.41;;;13.48;78.82
56894;BME280;43392;50.078;13.704;2023-04-24T10:43:41;95925.81;;;13.38;79.47
56894;BME280;43392;50.078;13.704;2023-04-24T10:46:10;95934.38;;;13.32;79.65
56894;BME280;43392;50.078;13.704;2023-04-24T10:48:42;95950.19;;;13.16;81.16
56894;BME280;43392;50.078;13.704;2023-04-24T10:51:11;95957.44;;;12.98;82.73
56894;BME280;43392;50.078;13.704;2023-04-24T10:53:38;95970.41;;;12.88;84.18
56894;BME280;43392;50.078;13.704;2023-04-24T10:56:06;95961.06;;;12.85;83.81
56894;BME280;43392;50.078;13.704;2023-04-24T10:58:39;95962.03;;;12.98;84.62
56894;BME280;43392;50.078;13.704;2023-04-24T11:01:06;95959.38;;;13.06;84.11
56894;BME280;43392;50.078;13.704;2023-04-24T11:03:35;95947.19;;;13.26;84.22
56894;BME280;43392;50.078;13.704;2023-04-24T11:06:04;95944.03;;;13.50;82.91
56894;BME280;43392;50.078;13.704;2023-04-24T11:08:36;95942.56;;;13.78;81.94
56894;BME280;43392;50.078;13.704;2023-04-24T11:11:08;95941.53;;;14.08;81.14
56894;BME280;43392;50.078;13.704;2023-04-24T11:16:38;95943.28;;;14.59;80.20
56894;BME280;43392;50.078;13.704;2023-04-24T11:19:08;95949.09;;;14.70;79.10
56894;BME280;43392;50.078;13.704;2023-04-24T11:21:42;95943.59;;;14.87;78.62
56894;BME280;43392;50.078;13.704;2023-04-24T11:24:29;95950.47;;;15.05;78.11
56894;BME280;43392;50.078;13.704;2023-04-24T11:26:59;95945.41;;;15.24;77.08
56894;BME280;43392;50.078;13.704;2023-04-24T11:29:40;95936.50;;;15.44;75.93
56894;BME280;43392;50.078;13.704;2023-04-24T11:32:15;95935.00;;;15.55;74.37
56894;BME280;43392;50.078;13.704;2023-04-24T11:34:47;95947.66;;;15.63;73.97
56894;BME280;43392;50.078;13.704;2023-04-24T11:37:14;95946.94;;;15.54;70.92
56894;BME280;43392;50.078;13.704;2023-04-24T11:39:41;95951.94;;;15.64;70.98
56894;BME280;43392;50.078;13.704;2023-04-24T11:42:08;95946.91;;;15.75;71.37
56894;BME280;43392;50.078;13.704;2023-04-24T11:44:35;95947.63;;;15.84;68.44
56894;BME280;43392;50.078;13.704;2023-04-24T11:47:02;95950.59;;;15.91;65.47
56894;BME280;43392;50.078;13.704;2023-04-24T11:49:29;95950.56;;;15.58;61.58
56894;BME280;43392;50.078;13.704;2023-04-24T11:51:57;95951.00;;;14.98;60.71
56894;BME280;43392;50.078;13.704;2023-04-24T11:54:23;95953.00;;;14.81;62.20
56894;BME280;43392;50.078;13.704;2023-04-24T11:56:50;95948.47;;;14.64;64.51
56894;BME280;43392;50.078;13.704;2023-04-24T11:59:17;95952.91;;;14.69;61.80
56894;BME280;43392;50.078;13.704;2023-04-24T12:01:44;95950.63;;;14.79;61.83
56894;BME280;43392;50.078;13.704;2023-04-24T12:04:11;95956.94;;;14.83;58.02
56894;BME280;43392;50.078;13.704;2023-04-24T12:06:38;95949.41;;;14.68;56.25
56894;BME280;43392;50.078;13.704;2023-04-24T12:09:06;95949.91;;;14.91;59.96
56894;BME280;43392;50.078;13.704;2023-04-24T12:11:34;95952.81;;;14.86;55.51
56894;BME280;43392;50.078;13.704;2023-04-24T12:14:10;95958.56;;;15.05;58.52
56894;BME280;43392;50.078;13.704;2023-04-24T12:16:36;95962.69;;;14.82;58.15
56894;BME280;43392;50.078;13.704;2023-04-24T12:19:03;95960.94;;;15.06;59.14
56894;BME280;43392;50.078;13.704;2023-04-24T12:21:31;95963.06;;;15.21;58.20
56894;BME280;43392;50.078;13.704;2023-04-24T12:23:57;95963.88;;;14.63;53.52
56894;BME280;43392;50.078;13.704;2023-04-24T12:26:27;95970.50;;;14.37;56.66
56894;BME280;43392;50.078;13.704;2023-04-24T12:28:54;95966.06;;;14.41;57.23
56894;BME280;43392;50.078;13.704;2023-04-24T12:31:21;95969.03;;;14.48;56.62
56894;BME280;43392;50.078;13.704;2023-04-24T12:33:47;95965.81;;;14.54;55.97
56894;BME280;43392;50.078;13.704;2023-04-24T12:36:14;95960.66;;;14.41;56.58
56894;BME280;43392;50.078;13.704;2023-04-24T12:38:43;95969.00;;;14.56;56.70
56894;BME280;43392;50.078;13.704;2023-04-24T12:41:11;95962.94;;;14.59;55.50
56894;BME280;43392;50.078;13.704;2023-04-24T12:43:50;95973.06;;;14.33;53.42
56894;BME280;43392;50.078;13.704;2023-04-24T12:46:17;95968.66;;;14.03;55.02
56894;BME280;43392;50.078;13.704;2023-04-24T12:48:44;95971.22;;;13.91;55.09
56894;BME280;43392;50.078;13.704;2023-04-24T12:51:10;95971.06;;;13.96;56.43
56894;BME280;43392;50.078;13.704;2023-04-24T12:53:37;95963.00;;;13.87;55.76
56894;BME280;43392;50.078;13.704;2023-04-24T12:56:04;95978.56;;;13.56;54.92